Kampville Beach, Missouri
Current Conditions -  °F | °C
As of 11:54 AM on Friday 31 Oct 2014 (Local Time) from KSET Reporting Station
Clear Clear  
Wind Chill: 34°   Ceiling: Unl
Heat Index: 43°   Visibility: 10mi
Dew Point: 26°   Wind: 21mph
Humidity: 51%   Direction: 340°NNW
Pressure: 30.31"   Gusts: 26mph
Location:  38.8615°N, 90.4548°W
Report Text: KSET 311654Z AUTO 34018G23KT 10SM CLR 06/M03 A3031 RMK AO2 PK WND 32029/1615 SLP264 T00611033
Loading
Personal Weather Stations






























Interactive Weather Map
Tropical Storm Tracking
New forecast layout! Learn more

10-Day Weather Forecast

Advertisements
Track Severe Weather on mobile